createdAt,value
2022-08-05T00:00:35.232Z,62.03
2022-08-05T00:01:35.758Z,62.03
2022-08-05T00:02:35.278Z,61.80
2022-08-05T00:03:35.213Z,62.32
2022-08-05T00:04:35.224Z,63.07
2022-08-05T00:06:05.341Z,63.26
2022-08-05T00:06:36.074Z,63.55
2022-08-05T00:07:59.625Z,63.75
2022-08-05T00:08:36.262Z,64.04
2022-08-05T00:09:35.276Z,64.62
2022-08-05T00:10:35.282Z,64.59
2022-08-05T00:11:49.049Z,64.88
2022-08-05T00:12:35.324Z,64.11
2022-08-05T00:13:38.268Z,64.59
2022-08-05T00:14:35.338Z,64.59
2022-08-05T00:15:57.828Z,64.11
2022-08-05T00:16:52.108Z,64.01
2022-08-05T00:17:35.329Z,64.40
2022-08-05T00:18:35.357Z,64.98
2022-08-05T00:19:45.658Z,64.98
2022-08-05T00:20:35.371Z,65.17
2022-08-05T00:21:35.735Z,65.17
2022-08-05T00:22:35.385Z,65.27
2022-08-05T00:23:45.768Z,65.08
2022-08-05T00:24:35.403Z,64.40
2022-08-05T00:25:45.467Z,63.91
2022-08-05T00:26:35.415Z,64.85
2022-08-05T00:27:36.201Z,65.33
2022-08-05T00:28:35.426Z,65.24
2022-08-05T00:29:38.073Z,65.63
2022-08-05T00:30:35.447Z,66.11
2022-08-05T00:31:53.912Z,65.92
2022-08-05T00:32:35.985Z,66.21
2022-08-05T00:34:53.950Z,66.79
2022-08-05T00:34:54.816Z,66.30
2022-08-05T00:35:35.507Z,66.99
2022-08-05T00:37:10.448Z,66.79
2022-08-05T00:37:52.661Z,67.47
2022-08-05T00:38:35.526Z,67.08
2022-08-05T00:39:37.173Z,66.89
2022-08-05T00:40:35.541Z,66.60
2022-08-05T00:41:51.546Z,66.40
2022-08-05T00:42:35.568Z,66.40
2022-08-05T00:43:46.721Z,66.60
2022-08-05T00:44:35.562Z,66.60
2022-08-05T00:45:38.412Z,66.40
2022-08-05T00:46:42.615Z,66.50
2022-08-05T00:47:52.980Z,66.50
2022-08-05T00:48:35.601Z,66.50
2022-08-05T00:49:51.301Z,66.60
2022-08-05T00:50:35.716Z,66.11
2022-08-05T00:51:50.713Z,65.33
2022-08-05T00:52:35.630Z,66.40
2022-08-05T00:53:45.166Z,66.37
2022-08-05T00:54:35.640Z,66.37
2022-08-05T00:55:43.526Z,66.47
2022-08-05T00:56:35.682Z,67.44
2022-08-05T00:57:55.235Z,66.95
2022-08-05T00:58:35.658Z,66.37
2022-08-05T00:59:44.455Z,66.05
2022-08-05T01:00:35.714Z,66.14
2022-08-05T01:01:42.565Z,66.37
2022-08-05T01:02:35.707Z,66.44
2022-08-05T01:03:35.724Z,66.56
2022-08-05T01:04:35.705Z,66.86
2022-08-05T01:05:35.735Z,67.50
2022-08-05T01:06:35.731Z,67.11
2022-08-05T01:07:35.742Z,67.21
2022-08-05T01:08:43.058Z,67.83
2022-08-05T01:09:35.760Z,68.21
2022-08-05T01:10:35.764Z,68.51
2022-08-05T01:11:37.431Z,68.08
2022-08-05T01:12:35.777Z,68.47
2022-08-05T01:13:57.287Z,68.51
2022-08-05T01:14:35.798Z,69.09
2022-08-05T01:15:36.830Z,69.34
2022-08-05T01:16:35.801Z,69.44
2022-08-05T01:17:39.950Z,70.54
2022-08-05T01:18:35.826Z,70.31
2022-08-05T01:20:01.569Z,70.80
2022-08-05T01:20:35.851Z,71.09
2022-08-05T01:21:38.235Z,71.86
2022-08-05T01:22:35.863Z,71.38
2022-08-05T01:23:35.855Z,72.25
2022-08-05T01:24:35.885Z,72.49
2022-08-05T01:25:40.020Z,72.87
2022-08-05T01:26:35.879Z,72.87
2022-08-05T01:27:35.920Z,72.74
2022-08-05T01:28:35.901Z,73.16
2022-08-05T01:29:35.901Z,73.26
2022-08-05T01:30:35.920Z,73.16
2022-08-05T01:31:42.567Z,73.94
2022-08-05T01:32:35.933Z,73.52
2022-08-05T01:33:36.109Z,74.10
2022-08-05T01:34:35.995Z,73.90
2022-08-05T01:35:51.638Z,74.49
2022-08-05T01:36:35.952Z,74.00
2022-08-05T01:37:36.688Z,74.29
2022-08-05T01:38:35.979Z,74.39
2022-08-05T01:39:45.841Z,74.19
2022-08-05T01:40:36.021Z,74.39
2022-08-05T01:41:36.252Z,74.13
2022-08-05T01:42:35.998Z,74.29
2022-08-05T01:43:36.008Z,74.00
2022-08-05T01:44:36.014Z,73.90
2022-08-05T01:45:43.020Z,74.10
2022-08-05T01:46:42.984Z,74.49
2022-08-05T01:47:39.619Z,74.87
2022-08-05T01:48:36.071Z,75.26
2022-08-05T01:49:42.799Z,74.97
2022-08-05T01:50:36.059Z,74.97
2022-08-05T01:51:36.087Z,75.26
2022-08-05T01:52:36.071Z,75.16
2022-08-05T01:53:54.869Z,74.97
2022-08-05T01:54:46.240Z,74.87
2022-08-05T01:55:36.454Z,75.26
2022-08-05T01:58:11.158Z,74.77
2022-08-05T01:58:11.254Z,75.26
2022-08-05T01:58:44.590Z,75.26
2022-08-05T01:59:36.134Z,75.16
2022-08-05T02:00:36.179Z,75.16
2022-08-05T02:01:40.008Z,75.07
2022-08-05T02:02:36.293Z,75.45
2022-08-05T02:03:36.173Z,75.84
2022-08-05T02:04:36.180Z,74.97
2022-08-05T02:05:36.510Z,75.26
2022-08-05T02:06:38.235Z,75.45
2022-08-05T02:07:36.212Z,75.36
2022-08-05T02:08:44.720Z,75.55
2022-08-05T02:09:36.230Z,75.36
2022-08-05T02:10:36.214Z,75.36
2022-08-05T02:11:36.229Z,75.36
2022-08-05T02:12:36.241Z,75.45
2022-08-05T02:13:36.491Z,75.55
2022-08-05T02:14:36.252Z,76.23
2022-08-05T02:15:36.263Z,75.65
2022-08-05T02:16:36.266Z,75.74
2022-08-05T02:18:28.706Z,75.84
2022-08-05T02:18:36.726Z,76.04
2022-08-05T02:19:36.293Z,75.94
2022-08-05T02:20:39.045Z,75.84
2022-08-05T02:21:43.097Z,76.23
2022-08-05T02:22:36.301Z,75.84
2022-08-05T02:23:36.314Z,76.52
2022-08-05T02:24:36.324Z,76.62
2022-08-05T02:25:50.206Z,76.23
2022-08-05T02:26:36.359Z,76.14
2022-08-05T02:27:58.177Z,76.32
2022-08-05T02:28:38.436Z,76.72
2022-08-05T02:29:59.542Z,76.32
2022-08-05T02:30:36.366Z,76.23
2022-08-05T02:31:36.389Z,76.81
2022-08-05T02:32:36.376Z,76.62
2022-08-05T02:33:38.738Z,77.45
2022-08-05T02:34:36.396Z,77.29
2022-08-05T02:35:38.623Z,77.11
2022-08-05T02:36:36.424Z,77.26
2022-08-05T02:37:36.427Z,77.16
2022-08-05T02:38:36.421Z,77.36
2022-08-05T02:39:36.473Z,77.55
2022-08-05T02:40:36.469Z,77.55
2022-08-05T02:41:57.462Z,77.75
2022-08-05T02:42:36.465Z,77.75
2022-08-05T02:43:36.466Z,77.84
2022-08-05T02:44:36.477Z,77.94
2022-08-05T02:45:52.597Z,78.52
2022-08-05T02:46:36.484Z,78.13
2022-08-05T02:48:07.495Z,77.75
2022-08-05T02:48:36.496Z,77.84
2022-08-05T02:49:40.340Z,77.84
2022-08-05T02:50:36.526Z,78.13
2022-08-05T02:52:04.493Z,78.13
2022-08-05T02:52:36.535Z,78.03
2022-08-05T02:53:39.379Z,78.52
2022-08-05T02:54:37.200Z,78.61
2022-08-05T02:55:54.629Z,78.33
2022-08-05T02:56:36.560Z,78.42
2022-08-05T02:58:09.912Z,78.52
2022-08-05T02:58:36.577Z,78.91
2022-08-05T02:59:50.123Z,78.33
2022-08-05T03:00:36.589Z,78.33
2022-08-05T03:01:36.648Z,78.91
2022-08-05T03:02:36.621Z,78.33
2022-08-05T03:04:02.720Z,78.42
2022-08-05T03:04:36.611Z,78.52
2022-08-05T03:06:55.755Z,79.10
2022-08-05T03:06:57.160Z,78.91
2022-08-05T03:08:00.505Z,79.00
2022-08-05T03:08:36.743Z,78.71
2022-08-05T03:09:38.175Z,78.52
2022-08-05T03:10:36.667Z,78.52
2022-08-05T03:11:55.561Z,79.20
2022-08-05T03:12:36.682Z,78.52
2022-08-05T03:13:52.069Z,79.10
2022-08-05T03:14:40.886Z,78.91
2022-08-05T03:15:36.693Z,78.52
2022-08-05T03:16:36.701Z,78.13
2022-08-05T03:17:40.703Z,77.94
2022-08-05T03:18:36.829Z,77.75
2022-08-05T03:19:36.755Z,77.65
2022-08-05T03:20:36.732Z,77.65
2022-08-05T03:21:41.517Z,77.84
2022-08-05T03:22:36.750Z,77.84
2022-08-05T03:23:36.758Z,77.84
2022-08-05T03:24:36.780Z,77.94
2022-08-05T03:26:03.826Z,77.84
2022-08-05T03:26:36.784Z,78.61
2022-08-05T03:27:57.842Z,78.13
2022-08-05T03:28:36.804Z,77.84
2022-08-05T03:29:45.762Z,78.33
2022-08-05T03:30:36.826Z,78.13
2022-08-05T03:31:55.624Z,78.13
2022-08-05T03:32:36.853Z,77.75
2022-08-05T03:33:51.188Z,78.13
2022-08-05T03:34:36.841Z,78.03
2022-08-05T03:35:41.269Z,78.23
2022-08-05T03:36:36.864Z,77.65
2022-08-05T03:37:46.244Z,77.75
2022-08-05T03:38:37.563Z,77.65
2022-08-05T03:39:58.487Z,77.75
2022-08-05T03:40:36.896Z,77.65
2022-08-05T03:41:38.820Z,77.55
2022-08-05T03:42:41.800Z,77.75
2022-08-05T03:44:09.405Z,77.65
2022-08-05T03:44:36.920Z,77.65
2022-08-05T03:45:57.254Z,77.75
2022-08-05T03:46:36.933Z,77.45
2022-08-05T03:47:41.357Z,77.75
2022-08-05T03:48:36.974Z,77.75
2022-08-05T03:49:51.133Z,77.55
2022-08-05T03:50:36.959Z,77.55
2022-08-05T03:52:37.324Z,77.55
2022-08-05T03:54:59.258Z,77.75
2022-08-05T03:55:00.031Z,77.55
2022-08-05T03:55:34.547Z,77.36
2022-08-05T03:56:04.960Z,77.75
2022-08-05T03:56:37.001Z,77.65
2022-08-05T03:57:42.536Z,77.45
2022-08-05T03:58:37.025Z,77.65
2022-08-05T03:59:47.032Z,77.75
2022-08-05T04:00:37.018Z,78.03
2022-08-05T04:01:37.074Z,77.75
2022-08-05T04:02:38.993Z,77.75
2022-08-05T04:03:38.082Z,77.75
2022-08-05T04:04:37.072Z,77.94
2022-08-05T04:05:37.071Z,77.65
2022-08-05T04:06:37.061Z,78.13
2022-08-05T04:07:37.070Z,78.13
2022-08-05T04:08:37.140Z,78.52
2022-08-05T04:09:37.104Z,78.61
2022-08-05T04:10:38.366Z,78.13
2022-08-05T04:11:50.767Z,78.52
2022-08-05T04:12:58.762Z,78.52
2022-08-05T04:13:51.288Z,77.65
2022-08-05T04:14:44.741Z,78.13
2022-08-05T04:15:37.127Z,78.23
2022-08-05T04:16:37.138Z,78.81
2022-08-05T04:17:55.519Z,78.23
2022-08-05T04:18:37.176Z,77.75
2022-08-05T04:19:37.158Z,77.65
2022-08-05T04:20:37.166Z,77.75
2022-08-05T04:22:09.669Z,78.23
2022-08-05T04:22:37.192Z,78.13
2022-08-05T04:24:04.800Z,77.75
2022-08-05T04:24:37.204Z,77.65
2022-08-05T04:25:57.829Z,78.03
2022-08-05T04:26:37.224Z,78.42
2022-08-05T04:27:43.600Z,78.61
2022-08-05T04:28:37.249Z,78.42
2022-08-05T04:29:37.275Z,78.61
2022-08-05T04:30:37.274Z,78.42
2022-08-05T04:31:38.630Z,78.52
2022-08-05T04:32:37.636Z,78.52
2022-08-05T04:34:18.479Z,78.81
2022-08-05T04:34:43.035Z,78.03
2022-08-05T04:36:11.394Z,78.23
2022-08-05T04:36:49.796Z,78.03
2022-08-05T04:38:02.285Z,78.61
2022-08-05T04:38:39.628Z,78.61
2022-08-05T04:39:37.342Z,78.52
2022-08-05T04:40:37.327Z,78.42
2022-08-05T04:41:38.769Z,79.04
2022-08-05T04:42:37.375Z,78.46
2022-08-05T04:43:37.335Z,79.04
2022-08-05T04:44:37.342Z,79.14
2022-08-05T04:45:48.987Z,78.66
2022-08-05T04:46:37.355Z,79.14
2022-08-05T04:47:38.598Z,78.56
2022-08-05T04:48:37.372Z,79.14
2022-08-05T04:50:01.006Z,78.85
2022-08-05T04:51:03.022Z,79.04
2022-08-05T04:51:37.399Z,78.66
2022-08-05T04:52:37.403Z,79.14
2022-08-05T04:53:38.895Z,79.04
2022-08-05T04:54:37.435Z,78.94
2022-08-05T04:56:00.048Z,78.94
2022-08-05T04:56:37.545Z,78.85
2022-08-05T04:57:37.491Z,79.04
2022-08-05T04:58:37.481Z,78.85
2022-08-05T04:59:39.214Z,79.14
2022-08-05T05:00:37.460Z,78.69
2022-08-05T05:02:07.775Z,78.59
2022-08-05T05:02:43.087Z,78.40
2022-08-05T05:03:42.313Z,77.82
2022-08-05T05:04:38.325Z,78.11
2022-08-05T05:06:35.868Z,78.11
2022-08-05T05:06:44.950Z,78.21
2022-08-05T05:07:37.718Z,77.82
2022-08-05T05:08:37.534Z,78.11
2022-08-05T05:09:38.112Z,77.92
2022-08-05T05:10:37.557Z,78.25
2022-08-05T05:11:41.558Z,77.92
2022-08-05T05:12:37.549Z,77.86
2022-08-05T05:13:43.489Z,78.64
2022-08-05T05:14:37.568Z,77.95
2022-08-05T05:15:57.832Z,78.25
2022-08-05T05:16:37.584Z,77.95
2022-08-05T05:17:56.632Z,77.47
2022-08-05T05:18:37.614Z,77.76
2022-08-05T05:19:44.423Z,77.86
2022-08-05T05:20:37.629Z,77.95
2022-08-05T05:21:37.618Z,78.25
2022-08-05T05:22:40.684Z,77.76
2022-08-05T05:24:01.832Z,78.15
2022-08-05T05:24:57.335Z,77.95
2022-08-05T05:25:41.055Z,77.67
2022-08-05T05:26:37.676Z,78.05
2022-08-05T05:27:41.791Z,77.57
2022-08-05T05:28:38.983Z,77.95
2022-08-05T05:30:03.628Z,77.80
2022-08-05T05:30:37.682Z,77.86
2022-08-05T05:31:58.736Z,77.76
2022-08-05T05:32:37.699Z,77.67
2022-08-05T05:33:58.820Z,77.95
2022-08-05T05:34:37.727Z,77.95
2022-08-05T05:35:39.698Z,78.05
2022-08-05T05:36:37.735Z,78.25
2022-08-05T05:38:00.305Z,77.86
2022-08-05T05:38:37.752Z,77.86
2022-08-05T05:39:37.887Z,78.19
2022-08-05T05:40:37.773Z,78.15
2022-08-05T05:41:40.778Z,77.76
2022-08-05T05:42:37.795Z,77.99
2022-08-05T05:43:57.502Z,77.70
2022-08-05T05:44:43.112Z,77.12
2022-08-05T05:45:37.796Z,76.83
2022-08-05T05:46:37.829Z,77.22
2022-08-05T05:48:06.574Z,77.61
2022-08-05T05:48:37.849Z,77.67
2022-08-05T05:49:37.841Z,77.51
2022-08-05T05:50:44.413Z,77.70
2022-08-05T05:51:49.990Z,77.61
2022-08-05T05:52:38.120Z,77.51
2022-08-05T05:53:45.945Z,77.80
2022-08-05T05:54:50.985Z,77.08
2022-08-05T05:55:52.012Z,77.22
2022-08-05T05:56:37.896Z,77.18
2022-08-05T05:57:51.971Z,77.18
2022-08-05T05:58:37.926Z,77.67
2022-08-05T05:59:40.269Z,78.15
2022-08-05T06:00:37.936Z,78.05
2022-08-05T06:01:39.588Z,78.05
2022-08-05T06:02:37.945Z,78.44
2022-08-05T06:03:53.944Z,78.73
2022-08-05T06:04:38.007Z,79.32
2022-08-05T06:05:37.966Z,79.08
2022-08-05T06:06:37.962Z,79.28
2022-08-05T06:07:41.515Z,79.18
2022-08-05T06:08:39.658Z,79.66
2022-08-05T06:10:00.156Z,80.15
2022-08-05T06:10:52.517Z,79.96
2022-08-05T06:11:39.313Z,80.34
2022-08-05T06:12:38.103Z,80.54
2022-08-05T06:13:40.753Z,81.51
2022-08-05T06:14:40.258Z,81.95
2022-08-05T06:16:31.354Z,82.53
2022-08-05T06:16:38.064Z,82.15
2022-08-05T06:17:52.598Z,82.63
2022-08-05T06:18:39.429Z,82.34
2022-08-05T06:19:38.065Z,82.82
2022-08-05T06:20:38.073Z,83.22
2022-08-05T06:21:38.130Z,83.12
2022-08-05T06:22:38.089Z,83.40
2022-08-05T06:23:43.978Z,83.31
2022-08-05T06:24:38.107Z,83.50
2022-08-05T06:26:12.114Z,83.60
2022-08-05T06:26:38.145Z,84.14
2022-08-05T06:28:12.854Z,83.75
2022-08-05T06:28:38.131Z,84.34
2022-08-05T06:29:51.926Z,84.34
2022-08-05T06:30:38.149Z,84.05
2022-08-05T06:31:38.182Z,83.85
2022-08-05T06:32:38.170Z,84.34
2022-08-05T06:34:07.100Z,84.38
2022-08-05T06:34:38.169Z,84.19
2022-08-05T06:36:07.684Z,84.38
2022-08-05T06:36:57.256Z,84.57
2022-08-05T06:37:39.423Z,83.89
2022-08-05T06:38:38.209Z,83.70
2022-08-05T06:39:38.252Z,83.31
2022-08-05T06:40:38.207Z,83.31
2022-08-05T06:41:40.577Z,84.19
2022-08-05T06:42:39.776Z,83.99
2022-08-05T06:43:57.263Z,83.54
2022-08-05T06:44:38.253Z,83.31
2022-08-05T06:45:45.116Z,83.60
2022-08-05T06:46:38.262Z,83.45
2022-08-05T06:48:37.143Z,83.31
2022-08-05T06:48:56.319Z,83.15
2022-08-05T06:50:00.644Z,83.45
2022-08-05T06:50:38.287Z,83.06
2022-08-05T06:51:40.827Z,83.06
2022-08-05T06:52:40.345Z,82.77
2022-08-05T06:53:39.095Z,83.06
2022-08-05T06:54:38.329Z,83.06
2022-08-05T06:55:38.327Z,83.25
2022-08-05T06:56:38.352Z,83.06
2022-08-05T06:58:02.784Z,82.87
2022-08-05T06:58:38.606Z,82.42
2022-08-05T06:59:38.496Z,82.62
2022-08-05T07:00:38.382Z,82.81
2022-08-05T07:01:40.831Z,82.32
2022-08-05T07:02:38.372Z,82.42
2022-08-05T07:03:38.392Z,82.32
2022-08-05T07:04:38.402Z,81.55
2022-08-05T07:05:41.324Z,82.56
2022-08-05T07:06:38.413Z,81.59
2022-08-05T07:07:43.232Z,81.16
2022-08-05T07:08:38.421Z,81.01
2022-08-05T07:09:40.652Z,80.81
2022-08-05T07:10:38.457Z,81.01
2022-08-05T07:11:40.005Z,81.30
2022-08-05T07:12:38.454Z,81.04
2022-08-05T07:13:57.913Z,81.24
2022-08-05T07:14:38.480Z,81.53
2022-08-05T07:16:01.098Z,81.04
2022-08-05T07:17:58.778Z,80.27
2022-08-05T07:18:01.907Z,80.17
2022-08-05T07:18:38.493Z,80.27
2022-08-05T07:20:39.031Z,79.68
2022-08-05T07:22:00.878Z,79.59
2022-08-05T07:22:38.548Z,79.88
2022-08-05T07:23:40.608Z,80.17
2022-08-05T07:24:43.961Z,80.66
2022-08-05T07:25:56.042Z,79.94
2022-08-05T07:26:38.557Z,80.52
2022-08-05T07:27:58.658Z,81.10
2022-08-05T07:28:38.580Z,81.30
2022-08-05T07:30:25.710Z,81.20
2022-08-05T07:30:39.743Z,80.81
2022-08-05T07:31:40.663Z,80.91
2022-08-05T07:32:38.617Z,81.68
2022-08-05T07:33:38.642Z,81.49
2022-08-05T07:34:42.153Z,81.68
2022-08-05T07:36:03.089Z,81.68
2022-08-05T07:36:38.660Z,81.30
2022-08-05T07:37:39.522Z,81.88
2022-08-05T07:38:43.441Z,82.17
2022-08-05T07:40:26.191Z,81.68
2022-08-05T07:40:38.721Z,82.27
2022-08-05T07:42:14.649Z,81.59
2022-08-05T07:42:38.739Z,81.30
2022-08-05T07:43:38.712Z,81.20
2022-08-05T07:44:38.691Z,81.39
2022-08-05T07:45:56.516Z,81.10
2022-08-05T07:46:38.719Z,81.01
2022-08-05T07:47:42.534Z,81.49
2022-08-05T07:49:01.615Z,80.62
2022-08-05T07:49:43.501Z,80.91
2022-08-05T07:50:38.756Z,80.62
2022-08-05T07:51:41.079Z,81.01
2022-08-05T07:52:38.772Z,81.49
2022-08-05T07:53:50.319Z,81.01
2022-08-05T07:54:47.559Z,80.91
2022-08-05T07:55:44.179Z,81.01
2022-08-05T07:57:00.123Z,81.01
2022-08-05T07:57:51.390Z,80.91
2022-08-05T07:58:57.636Z,81.59
2022-08-05T07:59:40.371Z,81.49
2022-08-05T08:00:38.885Z,80.81
2022-08-05T08:01:41.657Z,80.81
2022-08-05T08:03:14.834Z,81.01
2022-08-05T08:03:44.326Z,81.10
2022-08-05T08:04:38.882Z,80.62
2022-08-05T08:05:39.476Z,81.10
2022-08-05T08:06:38.896Z,81.20
2022-08-05T08:07:39.588Z,81.68
2022-08-05T08:08:38.886Z,81.78
2022-08-05T08:09:38.920Z,81.45
2022-08-05T08:10:38.934Z,81.93
2022-08-05T08:11:47.168Z,82.17
2022-08-05T08:12:48.663Z,82.23
2022-08-05T08:13:42.976Z,81.84
2022-08-05T08:14:38.925Z,81.93
2022-08-05T08:16:34.490Z,82.03
2022-08-05T08:16:51.037Z,82.42
2022-08-05T08:17:38.979Z,82.46
2022-08-05T08:18:38.954Z,82.85
2022-08-05T08:20:20.973Z,81.84
2022-08-05T08:21:01.078Z,82.17
2022-08-05T08:21:39.005Z,81.93
2022-08-05T08:22:38.988Z,80.91
2022-08-05T08:24:02.310Z,80.91
2022-08-05T08:24:51.042Z,81.20
2022-08-05T08:26:00.310Z,80.71
2022-08-05T08:26:39.035Z,81.01
2022-08-05T08:27:44.969Z,81.01
2022-08-05T08:28:55.202Z,80.91
2022-08-05T08:30:06.155Z,80.91
2022-08-05T08:30:48.011Z,80.32
2022-08-05T08:31:39.075Z,80.87
2022-08-05T08:32:41.782Z,80.62
2022-08-05T08:33:39.085Z,80.38
2022-08-05T08:34:39.093Z,80.87
2022-08-05T08:35:40.881Z,80.87
2022-08-05T08:36:49.014Z,80.87
2022-08-05T08:37:39.117Z,81.16
2022-08-05T08:38:39.109Z,81.35
2022-08-05T08:39:49.340Z,81.35
2022-08-05T08:40:39.145Z,81.84
2022-08-05T08:41:51.382Z,81.35
2022-08-05T08:42:50.649Z,81.45
2022-08-05T08:45:17.974Z,81.74
2022-08-05T08:45:18.857Z,81.45
2022-08-05T08:45:39.178Z,81.65
2022-08-05T08:46:39.170Z,81.35
2022-08-05T08:48:06.980Z,81.06
2022-08-05T08:48:42.955Z,81.35
2022-08-05T08:50:23.315Z,80.96
2022-08-05T08:51:23.311Z,82.13
2022-08-05T08:52:03.940Z,82.23
2022-08-05T08:52:39.238Z,83.29
2022-08-05T08:53:40.181Z,83.29
2022-08-05T08:54:39.248Z,84.07
2022-08-05T08:56:02.849Z,84.66
2022-08-05T08:56:39.615Z,85.14
2022-08-05T08:57:48.300Z,85.04
2022-08-05T08:58:44.288Z,85.04
2022-08-05T08:59:41.973Z,85.14
2022-08-05T09:00:39.303Z,85.14
2022-08-05T09:01:42.560Z,85.24
2022-08-05T09:02:39.728Z,85.24
2022-08-05T09:03:40.458Z,85.33
2022-08-05T09:04:58.435Z,84.66
2022-08-05T09:06:08.589Z,85.14
2022-08-05T09:06:39.339Z,85.33
2022-08-05T09:07:55.831Z,84.75
2022-08-05T09:08:40.457Z,85.14
2022-08-05T09:09:39.360Z,85.24
2022-08-05T09:10:40.227Z,85.04
2022-08-05T09:11:51.155Z,85.04
2022-08-05T09:12:39.379Z,85.63
2022-08-05T09:14:01.100Z,84.75
2022-08-05T09:14:59.092Z,85.63
2022-08-05T09:15:39.407Z,85.43
2022-08-05T09:16:39.399Z,85.72
2022-08-05T09:17:40.873Z,84.75
2022-08-05T09:18:43.775Z,85.04
2022-08-05T09:20:01.420Z,85.82
2022-08-05T09:20:39.448Z,85.33
2022-08-05T09:22:22.561Z,84.85
2022-08-05T09:22:39.824Z,84.89
2022-08-05T09:23:43.690Z,85.14
2022-08-05T09:24:39.465Z,85.08
2022-08-05T09:26:02.519Z,85.67
2022-08-05T09:26:39.479Z,85.47
2022-08-05T09:28:05.466Z,84.70
2022-08-05T09:28:39.511Z,84.31
2022-08-05T09:29:47.707Z,84.41
2022-08-05T09:30:39.525Z,82.56
2022-08-05T09:32:41.032Z,82.95
2022-08-05T09:32:43.055Z,83.24
2022-08-05T09:33:39.560Z,83.14
2022-08-05T09:34:39.563Z,83.24
2022-08-05T09:35:39.568Z,82.37
2022-08-05T09:36:54.106Z,82.85
2022-08-05T09:38:15.928Z,82.65
2022-08-05T09:38:39.585Z,82.65
2022-08-05T09:39:45.146Z,82.85
2022-08-05T09:40:39.598Z,82.65
2022-08-05T09:41:39.603Z,82.46
2022-08-05T09:42:39.618Z,81.78
2022-08-05T09:43:41.224Z,81.98
2022-08-05T09:44:39.618Z,82.17
2022-08-05T09:46:06.697Z,81.59
2022-08-05T09:46:39.644Z,81.88
2022-08-05T09:47:55.496Z,81.49
2022-08-05T09:48:39.659Z,81.59
2022-08-05T09:49:40.317Z,82.62
2022-08-05T09:50:44.427Z,81.35
2022-08-05T09:51:40.004Z,81.45
2022-08-05T09:52:45.067Z,81.65
2022-08-05T09:53:53.375Z,81.93
2022-08-05T09:54:39.704Z,82.56
2022-08-05T09:55:59.406Z,82.71
2022-08-05T09:56:39.739Z,82.90
2022-08-05T09:57:39.762Z,83.14
2022-08-05T09:58:41.862Z,83.20
2022-08-05T09:59:39.746Z,83.24
2022-08-05T10:00:39.775Z,84.01
2022-08-05T10:01:39.766Z,84.27
2022-08-05T10:02:39.844Z,85.24
2022-08-05T10:03:58.728Z,86.11
2022-08-05T10:04:39.890Z,87.08
2022-08-05T10:05:39.813Z,87.37
2022-08-05T10:06:39.788Z,88.59
2022-08-05T10:08:34.999Z,88.40
2022-08-05T10:08:42.509Z,87.72
2022-08-05T10:09:45.047Z,86.61
2022-08-05T10:10:39.844Z,88.59
2022-08-05T10:11:39.850Z,90.14
2022-08-05T10:12:40.218Z,90.00
2022-08-05T10:13:45.754Z,90.14
2022-08-05T10:14:39.864Z,90.53
2022-08-05T10:15:41.291Z,91.99
2022-08-05T10:16:52.504Z,90.92
2022-08-05T10:17:42.397Z,90.34
2022-08-05T10:18:39.895Z,91.41
2022-08-05T10:20:04.000Z,90.73
2022-08-05T10:20:39.898Z,90.24
2022-08-05T10:21:40.193Z,90.44
2022-08-05T10:22:42.768Z,91.02
2022-08-05T10:23:56.011Z,90.53
2022-08-05T10:24:39.939Z,89.76
2022-08-05T10:25:39.950Z,88.88
2022-08-05T10:26:48.895Z,88.69
2022-08-05T10:28:13.214Z,87.82
2022-08-05T10:28:39.955Z,87.72
2022-08-05T10:30:06.468Z,86.85
2022-08-05T10:31:20.751Z,86.94
2022-08-05T10:32:51.847Z,86.94
2022-08-05T10:33:01.150Z,86.65
2022-08-05T10:33:40.013Z,86.94
2022-08-05T10:34:40.664Z,86.65
2022-08-05T10:35:40.523Z,87.43
2022-08-05T10:36:40.030Z,87.52
2022-08-05T10:37:44.975Z,87.77
2022-08-05T10:38:40.112Z,88.45
2022-08-05T10:40:03.845Z,89.27
2022-08-05T10:40:43.534Z,89.42
2022-08-05T10:41:46.995Z,90.58
2022-08-05T10:42:43.815Z,90.97
2022-08-05T10:43:40.069Z,93.49
2022-08-05T10:44:40.118Z,94.07
2022-08-05T10:45:42.289Z,95.63
2022-08-05T10:46:40.107Z,95.92
2022-08-05T10:47:40.166Z,95.73
2022-08-05T10:48:56.831Z,96.31
2022-08-05T10:49:48.759Z,96.84
2022-08-05T10:50:40.139Z,96.98
2022-08-05T10:51:40.142Z,96.50
2022-08-05T10:52:40.139Z,96.79
2022-08-05T10:53:42.565Z,97.86
2022-08-05T10:54:46.908Z,98.35
2022-08-05T10:56:05.022Z,98.83
2022-08-05T10:56:40.175Z,99.90
2022-08-05T10:57:40.182Z,99.60
2022-08-05T10:58:48.589Z,99.70
2022-08-05T11:00:02.794Z,99.99
2022-08-05T11:00:42.014Z,99.99
2022-08-05T11:01:55.158Z,99.99
2022-08-05T11:02:43.742Z,99.99
2022-08-05T11:03:40.281Z,99.99
2022-08-05T11:04:40.245Z,99.99
2022-08-05T11:05:40.253Z,99.99
2022-08-05T11:06:40.258Z,99.99
2022-08-05T11:08:01.155Z,99.99
2022-08-05T11:08:40.273Z,99.99
2022-08-05T11:09:46.199Z,99.51
2022-08-05T11:10:50.225Z,98.88
2022-08-05T11:11:44.684Z,98.68
2022-08-05T11:12:41.119Z,96.89
2022-08-05T11:13:40.325Z,94.21
2022-08-05T11:15:01.398Z,91.97
2022-08-05T11:16:00.068Z,90.36
2022-08-05T11:16:47.962Z,87.04
2022-08-05T11:17:56.722Z,85.57
2022-08-05T11:18:46.911Z,83.61
2022-08-05T11:20:17.194Z,82.81
2022-08-05T11:20:41.799Z,80.11
2022-08-05T11:21:40.858Z,77.22
2022-08-05T11:22:42.121Z,75.21
2022-08-05T11:24:04.181Z,74.16
2022-08-05T11:24:40.408Z,72.70
2022-08-05T11:26:04.789Z,70.68
2022-08-05T11:26:40.582Z,69.47
2022-08-05T11:27:51.180Z,68.04
2022-08-05T11:28:40.450Z,66.86
2022-08-05T11:29:40.456Z,65.84
2022-08-05T11:30:40.459Z,66.30
2022-08-05T11:31:57.501Z,66.76
2022-08-05T11:32:40.490Z,67.61
2022-08-05T11:33:46.527Z,67.29
2022-08-05T11:34:50.945Z,67.25
2022-08-05T11:36:02.880Z,68.39
2022-08-05T11:36:42.877Z,70.02
2022-08-05T11:38:37.230Z,71.00
2022-08-05T11:38:45.531Z,70.57
2022-08-05T11:39:40.658Z,69.18
2022-08-05T11:40:40.571Z,67.58
2022-08-05T11:42:00.982Z,66.83
2022-08-05T11:42:40.720Z,67.15
2022-08-05T11:44:00.760Z,64.64
2022-08-05T11:44:53.711Z,64.11
2022-08-05T11:46:27.107Z,64.70
2022-08-05T11:47:09.563Z,64.51
2022-08-05T11:47:49.614Z,62.70
2022-08-05T11:48:40.667Z,61.95
2022-08-05T11:49:42.767Z,61.49
2022-08-05T11:50:40.696Z,61.52
2022-08-05T11:51:44.425Z,61.25
2022-08-05T11:52:40.706Z,61.88
2022-08-05T11:53:40.846Z,61.00
2022-08-05T11:54:41.621Z,60.50
2022-08-05T11:55:40.754Z,60.73
2022-08-05T11:56:41.331Z,61.13
2022-08-05T11:58:09.265Z,60.83
2022-08-05T11:58:40.770Z,61.68
2022-08-05T11:59:41.358Z,60.90
2022-08-05T12:00:41.364Z,61.26
2022-08-05T12:01:40.810Z,61.63
2022-08-05T12:02:40.886Z,62.21
2022-08-05T12:03:40.870Z,62.15
2022-08-05T12:04:40.845Z,62.35
2022-08-05T12:05:43.629Z,61.54
2022-08-05T12:06:40.855Z,62.12
2022-08-05T12:08:03.553Z,61.41
2022-08-05T12:08:40.873Z,62.19
2022-08-05T12:09:53.221Z,62.85
2022-08-05T12:10:45.598Z,63.66
2022-08-05T12:11:41.814Z,64.02
2022-08-05T12:12:59.234Z,64.80
2022-08-05T12:13:49.513Z,64.02
2022-08-05T12:14:43.240Z,64.51
2022-08-05T12:15:40.954Z,64.90
2022-08-05T12:16:40.959Z,64.22
2022-08-05T12:18:00.795Z,63.89
2022-08-05T12:18:40.977Z,63.70
2022-08-05T12:20:25.498Z,63.50
2022-08-05T12:20:41.459Z,64.09
2022-08-05T12:21:41.022Z,65.00
2022-08-05T12:22:41.018Z,63.82
2022-08-05T12:23:43.173Z,64.12
2022-08-05T12:24:41.040Z,63.92
2022-08-05T12:25:41.039Z,63.73
2022-08-05T12:26:44.102Z,63.92
2022-08-05T12:27:44.317Z,63.73
2022-08-05T12:28:41.079Z,62.95
2022-08-05T12:29:41.092Z,62.26
2022-08-05T12:30:46.097Z,62.16
2022-08-05T12:31:49.725Z,62.72
2022-08-05T12:32:41.115Z,62.72
2022-08-05T12:33:41.124Z,63.50
2022-08-05T12:34:41.128Z,62.82
2022-08-05T12:35:41.152Z,62.82
2022-08-05T12:36:41.262Z,63.79
2022-08-05T12:37:41.161Z,63.50
2022-08-05T12:38:41.593Z,64.09
2022-08-05T12:39:41.209Z,63.21
2022-08-05T12:40:44.234Z,63.01
2022-08-05T12:41:43.570Z,61.83
2022-08-05T12:42:41.224Z,62.39
2022-08-05T12:43:41.231Z,64.25
2022-08-05T12:44:41.238Z,64.35
2022-08-05T12:45:49.808Z,64.35
2022-08-05T12:46:41.285Z,65.03
2022-08-05T12:47:43.350Z,65.03
2022-08-05T12:48:41.283Z,64.35
2022-08-05T12:50:04.529Z,64.94
2022-08-05T12:50:41.300Z,64.64
2022-08-05T12:52:12.542Z,63.86
2022-08-05T12:52:42.443Z,64.45
2022-08-05T12:53:41.344Z,63.86